sensor_id;sensor_type;location;lat;lon;timestamp;temperature;humidity
63371;DHT22;49504;48.336;14.472;2023-04-15T00:01:36;24.50;45.70
63371;DHT22;49504;48.336;14.472;2023-04-15T00:04:58;24.50;45.70
63371;DHT22;49504;48.336;14.472;2023-04-15T00:08:20;24.60;45.70
63371;DHT22;49504;48.336;14.472;2023-04-15T00:11:41;24.50;46.40
63371;DHT22;49504;48.336;14.472;2023-04-15T00:15:02;24.50;45.70
63371;DHT22;49504;48.336;14.472;2023-04-15T00:18:24;24.50;45.80
63371;DHT22;49504;48.336;14.472;2023-04-15T00:21:46;24.60;45.70
63371;DHT22;49504;48.336;14.472;2023-04-15T00:25:08;24.50;45.60
63371;DHT22;49504;48.336;14.472;2023-04-15T00:28:29;24.50;45.60
63371;DHT22;49504;48.336;14.472;2023-04-15T00:31:51;24.60;45.70
63371;DHT22;49504;48.336;14.472;2023-04-15T00:35:12;24.50;45.60
63371;DHT22;49504;48.336;14.472;2023-04-15T00:38:36;24.50;45.50
63371;DHT22;49504;48.336;14.472;2023-04-15T00:41:58;24.60;45.60
63371;DHT22;49504;48.336;14.472;2023-04-15T00:45:19;24.50;45.60
63371;DHT22;49504;48.336;14.472;2023-04-15T00:48:41;24.50;45.60
63371;DHT22;49504;48.336;14.472;2023-04-15T00:52:02;24.50;45.60
63371;DHT22;49504;48.336;14.472;2023-04-15T00:55:25;24.50;45.60
63371;DHT22;49504;48.336;14.472;2023-04-15T00:58:47;24.50;45.60
63371;DHT22;49504;48.336;14.472;2023-04-15T01:02:08;24.50;46.20
63371;DHT22;49504;48.336;14.472;2023-04-15T01:05:30;24.50;45.60
63371;DHT22;49504;48.336;14.472;2023-04-15T01:08:51;24.50;45.60
63371;DHT22;49504;48.336;14.472;2023-04-15T01:12:14;24.50;45.60
63371;DHT22;49504;48.336;14.472;2023-04-15T01:16:08;24.50;45.10
63371;DHT22;49504;48.336;14.472;2023-04-15T01:19:29;24.50;45.60
63371;DHT22;49504;48.336;14.472;2023-04-15T01:22:51;24.50;45.70
63371;DHT22;49504;48.336;14.472;2023-04-15T01:26:13;24.50;45.70
63371;DHT22;49504;48.336;14.472;2023-04-15T01:29:37;24.50;45.70
63371;DHT22;49504;48.336;14.472;2023-04-15T01:32:59;24.50;45.70
63371;DHT22;49504;48.336;14.472;2023-04-15T01:36:20;24.50;45.70
63371;DHT22;49504;48.336;14.472;2023-04-15T01:39:41;24.50;45.70
63371;DHT22;49504;48.336;14.472;2023-04-15T01:43:04;24.50;46.40
63371;DHT22;49504;48.336;14.472;2023-04-15T01:46:25;24.50;45.70
63371;DHT22;49504;48.336;14.472;2023-04-15T01:49:47;24.50;45.70
63371;DHT22;49504;48.336;14.472;2023-04-15T01:53:08;24.50;45.70
63371;DHT22;49504;48.336;14.472;2023-04-15T01:56:30;24.50;45.70
63371;DHT22;49504;48.336;14.472;2023-04-15T01:59:52;24.50;45.70
63371;DHT22;49504;48.336;14.472;2023-04-15T02:03:13;24.50;45.80
63371;DHT22;49504;48.336;14.472;2023-04-15T02:06:34;24.50;45.70
63371;DHT22;49504;48.336;14.472;2023-04-15T02:09:55;24.50;45.70
63371;DHT22;49504;48.336;14.472;2023-04-15T02:13:16;24.50;45.70
63371;DHT22;49504;48.336;14.472;2023-04-15T02:16:39;24.50;45.70
63371;DHT22;49504;48.336;14.472;2023-04-15T02:20:01;24.50;45.80
63371;DHT22;49504;48.336;14.472;2023-04-15T02:23:23;24.50;45.80
63371;DHT22;49504;48.336;14.472;2023-04-15T02:26:44;24.50;45.80
63371;DHT22;49504;48.336;14.472;2023-04-15T02:30:06;24.50;45.80
63371;DHT22;49504;48.336;14.472;2023-04-15T02:33:30;24.50;45.80
63371;DHT22;49504;48.336;14.472;2023-04-15T02:36:52;24.50;45.80
63371;DHT22;49504;48.336;14.472;2023-04-15T02:40:13;24.50;45.80
63371;DHT22;49504;48.336;14.472;2023-04-15T02:43:34;24.50;45.80
63371;DHT22;49504;48.336;14.472;2023-04-15T02:46:55;24.50;45.80
63371;DHT22;49504;48.336;14.472;2023-04-15T02:50:18;24.50;45.80
63371;DHT22;49504;48.336;14.472;2023-04-15T02:54:30;24.50;45.20
63371;DHT22;49504;48.336;14.472;2023-04-15T02:57:51;24.40;45.70
63371;DHT22;49504;48.336;14.472;2023-04-15T03:01:12;24.50;45.80
63371;DHT22;49504;48.336;14.472;2023-04-15T03:04:35;24.50;45.70
63371;DHT22;49504;48.336;14.472;2023-04-15T03:07:56;24.50;45.80
63371;DHT22;49504;48.336;14.472;2023-04-15T03:11:18;24.40;45.60
63371;DHT22;49504;48.336;14.472;2023-04-15T03:14:39;24.50;45.70
63371;DHT22;49504;48.336;14.472;2023-04-15T03:18:01;24.50;45.70
63371;DHT22;49504;48.336;14.472;2023-04-15T03:21:22;24.40;45.60
63371;DHT22;49504;48.336;14.472;2023-04-15T03:24:43;24.50;45.80
63371;DHT22;49504;48.336;14.472;2023-04-15T03:28:06;24.50;45.80
63371;DHT22;49504;48.336;14.472;2023-04-15T03:31:27;24.40;45.60
63371;DHT22;49504;48.336;14.472;2023-04-15T03:34:48;24.50;45.70
63371;DHT22;49504;48.336;14.472;2023-04-15T03:38:10;24.40;45.60
63371;DHT22;49504;48.336;14.472;2023-04-15T03:41:31;24.40;45.60
63371;DHT22;49504;48.336;14.472;2023-04-15T03:44:53;24.50;45.70
63371;DHT22;49504;48.336;14.472;2023-04-15T03:48:14;24.40;45.60
63371;DHT22;49504;48.336;14.472;2023-04-15T03:51:35;24.40;45.60
63371;DHT22;49504;48.336;14.472;2023-04-15T03:54:56;24.50;45.80
63371;DHT22;49504;48.336;14.472;2023-04-15T03:58:17;24.40;45.60
63371;DHT22;49504;48.336;14.472;2023-04-15T04:01:40;24.40;45.60
63371;DHT22;49504;48.336;14.472;2023-04-15T04:05:01;24.50;45.70
63371;DHT22;49504;48.336;14.472;2023-04-15T04:08:22;24.40;45.60
63371;DHT22;49504;48.336;14.472;2023-04-15T04:11:43;24.40;45.60
63371;DHT22;49504;48.336;14.472;2023-04-15T04:15:05;24.40;46.30
63371;DHT22;49504;48.336;14.472;2023-04-15T04:18:28;24.40;45.60
63371;DHT22;49504;48.336;14.472;2023-04-15T04:21:50;24.40;45.60
63371;DHT22;49504;48.336;14.472;2023-04-15T04:25:11;24.40;45.60
63371;DHT22;49504;48.336;14.472;2023-04-15T04:28:33;24.40;45.60
63371;DHT22;49504;48.336;14.472;2023-04-15T04:31:54;24.40;45.50
63371;DHT22;49504;48.336;14.472;2023-04-15T04:35:33;24.40;45.00
63371;DHT22;49504;48.336;14.472;2023-04-15T04:39:44;24.40;45.00
63371;DHT22;49504;48.336;14.472;2023-04-15T04:43:05;24.40;45.50
63371;DHT22;49504;48.336;14.472;2023-04-15T04:46:26;24.40;45.30
63371;DHT22;49504;48.336;14.472;2023-04-15T04:49:48;24.40;45.30
63371;DHT22;49504;48.336;14.472;2023-04-15T04:53:09;24.40;45.20
63371;DHT22;49504;48.336;14.472;2023-04-15T04:56:32;24.40;45.20
63371;DHT22;49504;48.336;14.472;2023-04-15T04:59:53;24.50;45.20
63371;DHT22;49504;48.336;14.472;2023-04-15T05:03:14;24.40;45.10
63371;DHT22;49504;48.336;14.472;2023-04-15T05:06:35;24.50;45.30
63371;DHT22;49504;48.336;14.472;2023-04-15T05:09:57;24.50;45.30
63371;DHT22;49504;48.336;14.472;2023-04-15T05:13:19;24.40;45.30
63371;DHT22;49504;48.336;14.472;2023-04-15T05:16:40;24.50;45.30
63371;DHT22;49504;48.336;14.472;2023-04-15T05:20:02;24.40;45.30
63371;DHT22;49504;48.336;14.472;2023-04-15T05:23:23;24.50;45.50
63371;DHT22;49504;48.336;14.472;2023-04-15T05:26:44;24.40;45.40
63371;DHT22;49504;48.336;14.472;2023-04-15T05:30:08;24.50;45.50
63371;DHT22;49504;48.336;14.472;2023-04-15T05:33:29;24.50;45.50
63371;DHT22;49504;48.336;14.472;2023-04-15T05:36:50;24.40;45.60
63371;DHT22;49504;48.336;14.472;2023-04-15T05:40:12;24.40;45.30
63371;DHT22;49504;48.336;14.472;2023-04-15T05:43:33;24.40;45.40
63371;DHT22;49504;48.336;14.472;2023-04-15T05:46:56;24.40;45.20
63371;DHT22;49504;48.336;14.472;2023-04-15T05:50:17;24.40;45.20
63371;DHT22;49504;48.336;14.472;2023-04-15T05:53:39;24.40;45.00
63371;DHT22;49504;48.336;14.472;2023-04-15T05:57:00;24.40;45.00
63371;DHT22;49504;48.336;14.472;2023-04-15T06:00:22;24.40;45.00
63371;DHT22;49504;48.336;14.472;2023-04-15T06:06:13;24.40;44.60
63371;DHT22;49504;48.336;14.472;2023-04-15T06:09:35;24.40;45.20
63371;DHT22;49504;48.336;14.472;2023-04-15T06:12:56;24.40;45.20
63371;DHT22;49504;48.336;14.472;2023-04-15T06:16:17;24.40;45.00
63371;DHT22;49504;48.336;14.472;2023-04-15T06:19:39;24.40;45.00
63371;DHT22;49504;48.336;14.472;2023-04-15T06:23:02;24.40;45.00
63371;DHT22;49504;48.336;14.472;2023-04-15T06:26:23;24.40;44.90
63371;DHT22;49504;48.336;14.472;2023-04-15T06:29:44;24.40;45.20
63371;DHT22;49504;48.336;14.472;2023-04-15T06:33:06;24.40;45.20
63371;DHT22;49504;48.336;14.472;2023-04-15T06:36:28;24.40;45.40
63371;DHT22;49504;48.336;14.472;2023-04-15T06:39:51;24.40;45.10
63371;DHT22;49504;48.336;14.472;2023-04-15T06:43:12;24.30;45.20
63371;DHT22;49504;48.336;14.472;2023-04-15T06:46:33;24.30;45.20
63371;DHT22;49504;48.336;14.472;2023-04-15T06:49:54;24.30;45.20
63371;DHT22;49504;48.336;14.472;2023-04-15T06:53:15;24.40;45.30
63371;DHT22;49504;48.336;14.472;2023-04-15T06:56:38;24.30;45.30
63371;DHT22;49504;48.336;14.472;2023-04-15T06:59:59;24.30;45.90
63371;DHT22;49504;48.336;14.472;2023-04-15T07:03:20;24.30;45.20
63371;DHT22;49504;48.336;14.472;2023-04-15T07:06:41;24.30;45.20
63371;DHT22;49504;48.336;14.472;2023-04-15T07:12:42;24.30;44.70
63371;DHT22;49504;48.336;14.472;2023-04-15T07:16:04;24.30;45.20
63371;DHT22;49504;48.336;14.472;2023-04-15T07:21:59;24.30;44.70
63371;DHT22;49504;48.336;14.472;2023-04-15T07:25:20;24.30;45.30
63371;DHT22;49504;48.336;14.472;2023-04-15T07:28:42;24.30;45.30
63371;DHT22;49504;48.336;14.472;2023-04-15T07:32:03;24.30;45.20
63371;DHT22;49504;48.336;14.472;2023-04-15T07:35:25;24.30;45.20
63371;DHT22;49504;48.336;14.472;2023-04-15T07:38:48;24.30;44.90
63371;DHT22;49504;48.336;14.472;2023-04-15T07:42:10;24.30;44.50
63371;DHT22;49504;48.336;14.472;2023-04-15T07:46:42;24.30;44.20
63371;DHT22;49504;48.336;14.472;2023-04-15T07:50:04;24.30;44.80
63371;DHT22;49504;48.336;14.472;2023-04-15T07:53:26;24.30;44.90
63371;DHT22;49504;48.336;14.472;2023-04-15T07:56:47;24.30;45.00
63371;DHT22;49504;48.336;14.472;2023-04-15T08:00:08;24.30;44.90
63371;DHT22;49504;48.336;14.472;2023-04-15T08:03:44;24.30;44.50
63371;DHT22;49504;48.336;14.472;2023-04-15T08:07:06;24.40;45.20
63371;DHT22;49504;48.336;14.472;2023-04-15T08:10:28;24.40;45.20
63371;DHT22;49504;48.336;14.472;2023-04-15T08:13:49;24.40;45.20
63371;DHT22;49504;48.336;14.472;2023-04-15T08:17:11;24.40;45.30
63371;DHT22;49504;48.336;14.472;2023-04-15T08:22:31;24.40;44.60
63371;DHT22;49504;48.336;14.472;2023-04-15T08:25:52;24.40;44.20
63371;DHT22;49504;48.336;14.472;2023-04-15T08:29:13;24.40;44.20
63371;DHT22;49504;48.336;14.472;2023-04-15T08:32:34;24.40;44.00
63371;DHT22;49504;48.336;14.472;2023-04-15T08:35:55;24.40;43.80
63371;DHT22;49504;48.336;14.472;2023-04-15T08:39:18;24.40;44.50
63371;DHT22;49504;48.336;14.472;2023-04-15T08:42:43;24.40;43.90
63371;DHT22;49504;48.336;14.472;2023-04-15T08:46:05;24.40;44.00
63371;DHT22;49504;48.336;14.472;2023-04-15T08:53:06;24.40;43.90
63371;DHT22;49504;48.336;14.472;2023-04-15T08:56:30;24.40;44.50
63371;DHT22;49504;48.336;14.472;2023-04-15T09:01:51;24.40;44.00
63371;DHT22;49504;48.336;14.472;2023-04-15T09:05:12;24.40;44.60
63371;DHT22;49504;48.336;14.472;2023-04-15T09:08:33;24.40;44.60
63371;DHT22;49504;48.336;14.472;2023-04-15T09:11:54;24.40;44.60
63371;DHT22;49504;48.336;14.472;2023-04-15T09:15:16;24.40;44.60
63371;DHT22;49504;48.336;14.472;2023-04-15T09:18:38;24.40;44.70
63371;DHT22;49504;48.336;14.472;2023-04-15T09:22:00;24.40;44.70
63371;DHT22;49504;48.336;14.472;2023-04-15T09:25:26;24.40;44.70
63371;DHT22;49504;48.336;14.472;2023-04-15T09:28:48;24.40;44.70
63371;DHT22;49504;48.336;14.472;2023-04-15T09:32:10;24.40;44.70
63371;DHT22;49504;48.336;14.472;2023-04-15T09:35:34;24.50;44.80
63371;DHT22;49504;48.336;14.472;2023-04-15T09:38:55;24.50;44.70
63371;DHT22;49504;48.336;14.472;2023-04-15T09:42:18;24.40;44.40
63371;DHT22;49504;48.336;14.472;2023-04-15T09:45:46;24.40;44.20
63371;DHT22;49504;48.336;14.472;2023-04-15T09:49:09;24.50;44.20
63371;DHT22;49504;48.336;14.472;2023-04-15T09:52:32;24.40;44.30
63371;DHT22;49504;48.336;14.472;2023-04-15T09:55:55;24.50;44.60
63371;DHT22;49504;48.336;14.472;2023-04-15T09:59:17;24.40;44.60
63371;DHT22;49504;48.336;14.472;2023-04-15T10:05:33;24.50;44.20
63371;DHT22;49504;48.336;14.472;2023-04-15T10:08:55;24.50;44.80
63371;DHT22;49504;48.336;14.472;2023-04-15T10:12:18;24.50;44.80
63371;DHT22;49504;48.336;14.472;2023-04-15T10:15:43;24.50;44.80
63371;DHT22;49504;48.336;14.472;2023-04-15T10:19:05;24.40;44.60
63371;DHT22;49504;48.336;14.472;2023-04-15T10:22:28;24.40;44.60
63371;DHT22;49504;48.336;14.472;2023-04-15T10:27:20;24.40;44.10
63371;DHT22;49504;48.336;14.472;2023-04-15T10:30:42;24.50;44.60
63371;DHT22;49504;48.336;14.472;2023-04-15T10:34:05;24.40;44.50
63371;DHT22;49504;48.336;14.472;2023-04-15T10:38:36;24.50;44.10
63371;DHT22;49504;48.336;14.472;2023-04-15T10:42:06;24.50;44.60
63371;DHT22;49504;48.336;14.472;2023-04-15T10:45:34;24.50;44.40
63371;DHT22;49504;48.336;14.472;2023-04-15T10:52:31;24.40;43.50
63371;DHT22;49504;48.336;14.472;2023-04-15T10:55:52;24.40;43.50
63371;DHT22;49504;48.336;14.472;2023-04-15T10:59:15;24.40;43.30
63371;DHT22;49504;48.336;14.472;2023-04-15T11:02:44;24.40;43.50
63371;DHT22;49504;48.336;14.472;2023-04-15T11:06:06;24.40;43.40
63371;DHT22;49504;48.336;14.472;2023-04-15T11:09:32;24.40;43.70
63371;DHT22;49504;48.336;14.472;2023-04-15T11:12:56;24.40;43.80
63371;DHT22;49504;48.336;14.472;2023-04-15T11:16:18;24.40;44.00
63371;DHT22;49504;48.336;14.472;2023-04-15T11:19:40;24.40;44.00
63371;DHT22;49504;48.336;14.472;2023-04-15T11:23:01;24.40;44.10
63371;DHT22;49504;48.336;14.472;2023-04-15T11:29:00;24.40;43.80
63371;DHT22;49504;48.336;14.472;2023-04-15T11:32:22;24.40;44.40
63371;DHT22;49504;48.336;14.472;2023-04-15T11:36:25;24.40;43.90
63371;DHT22;49504;48.336;14.472;2023-04-15T11:39:47;24.40;44.70
63371;DHT22;49504;48.336;14.472;2023-04-15T11:43:10;24.40;44.60
63371;DHT22;49504;48.336;14.472;2023-04-15T11:46:32;24.40;44.50
63371;DHT22;49504;48.336;14.472;2023-04-15T11:49:53;24.50;44.50
63371;DHT22;49504;48.336;14.472;2023-04-15T11:53:16;24.50;44.30
63371;DHT22;49504;48.336;14.472;2023-04-15T11:56:37;24.50;44.20
63371;DHT22;49504;48.336;14.472;2023-04-15T11:59:59;24.50;44.10
63371;DHT22;49504;48.336;14.472;2023-04-15T12:03:24;24.50;44.00
63371;DHT22;49504;48.336;14.472;2023-04-15T12:06:47;24.40;43.90
63371;DHT22;49504;48.336;14.472;2023-04-15T12:10:09;24.40;43.80
63371;DHT22;49504;48.336;14.472;2023-04-15T12:13:31;24.40;43.80
63371;DHT22;49504;48.336;14.472;2023-04-15T12:16:53;24.40;43.70
63371;DHT22;49504;48.336;14.472;2023-04-15T12:20:20;24.40;43.70
63371;DHT22;49504;48.336;14.472;2023-04-15T12:23:48;24.40;43.70
63371;DHT22;49504;48.336;14.472;2023-04-15T12:27:12;24.40;43.60
63371;DHT22;49504;48.336;14.472;2023-04-15T12:30:34;24.40;43.70
63371;DHT22;49504;48.336;14.472;2023-04-15T12:33:56;24.40;43.80
63371;DHT22;49504;48.336;14.472;2023-04-15T12:37:18;24.40;43.80
63371;DHT22;49504;48.336;14.472;2023-04-15T12:40:39;24.40;43.90
63371;DHT22;49504;48.336;14.472;2023-04-15T12:44:01;24.40;43.80
63371;DHT22;49504;48.336;14.472;2023-04-15T12:47:23;24.40;43.70
63371;DHT22;49504;48.336;14.472;2023-04-15T12:50:44;24.40;43.70
63371;DHT22;49504;48.336;14.472;2023-04-15T12:54:05;24.40;43.70
63371;DHT22;49504;48.336;14.472;2023-04-15T12:57:26;24.40;43.80
63371;DHT22;49504;48.336;14.472;2023-04-15T13:00:49;24.40;44.00
63371;DHT22;49504;48.336;14.472;2023-04-15T13:04:12;24.40;44.00
63371;DHT22;49504;48.336;14.472;2023-04-15T13:07:34;24.40;44.10
63371;DHT22;49504;48.336;14.472;2023-04-15T13:10:55;24.40;44.00
63371;DHT22;49504;48.336;14.472;2023-04-15T13:14:16;24.40;43.90
63371;DHT22;49504;48.336;14.472;2023-04-15T13:17:39;24.40;43.80
63371;DHT22;49504;48.336;14.472;2023-04-15T13:21:00;24.40;43.80
63371;DHT22;49504;48.336;14.472;2023-04-15T13:24:21;24.40;43.80
63371;DHT22;49504;48.336;14.472;2023-04-15T13:27:43;24.40;43.80
63371;DHT22;49504;48.336;14.472;2023-04-15T13:32:29;24.40;43.30
63371;DHT22;49504;48.336;14.472;2023-04-15T13:35:50;24.40;43.80
63371;DHT22;49504;48.336;14.472;2023-04-15T13:39:12;24.40;43.70
63371;DHT22;49504;48.336;14.472;2023-04-15T13:42:33;24.40;43.70
63371;DHT22;49504;48.336;14.472;2023-04-15T13:45:55;24.40;43.70
63371;DHT22;49504;48.336;14.472;2023-04-15T13:49:18;24.40;43.70
63371;DHT22;49504;48.336;14.472;2023-04-15T13:52:39;24.40;43.70
63371;DHT22;49504;48.336;14.472;2023-04-15T13:56:00;24.40;43.70
63371;DHT22;49504;48.336;14.472;2023-04-15T13:59:21;24.40;43.80
63371;DHT22;49504;48.336;14.472;2023-04-15T14:02:42;24.40;43.90
63371;DHT22;49504;48.336;14.472;2023-04-15T14:06:05;24.40;44.00
63371;DHT22;49504;48.336;14.472;2023-04-15T14:09:26;24.40;44.00
63371;DHT22;49504;48.336;14.472;2023-04-15T14:12:48;24.40;43.90
63371;DHT22;49504;48.336;14.472;2023-04-15T14:16:09;24.40;43.90
63371;DHT22;49504;48.336;14.472;2023-04-15T14:19:30;24.50;44.00
63371;DHT22;49504;48.336;14.472;2023-04-15T14:22:53;24.50;43.90
63371;DHT22;49504;48.336;14.472;2023-04-15T14:26:14;24.40;43.70
63371;DHT22;49504;48.336;14.472;2023-04-15T14:29:36;24.50;43.80
63371;DHT22;49504;48.336;14.472;2023-04-15T14:32:58;24.40;43.70
63371;DHT22;49504;48.336;14.472;2023-04-15T14:36:19;24.40;43.60
63371;DHT22;49504;48.336;14.472;2023-04-15T14:39:41;24.40;43.60
63371;DHT22;49504;48.336;14.472;2023-04-15T14:43:02;24.40;43.60
63371;DHT22;49504;48.336;14.472;2023-04-15T14:46:24;24.50;43.70
63371;DHT22;49504;48.336;14.472;2023-04-15T14:49:45;24.40;43.60
63371;DHT22;49504;48.336;14.472;2023-04-15T14:53:59;24.50;43.20
63371;DHT22;49504;48.336;14.472;2023-04-15T14:57:20;24.50;43.70
63371;DHT22;49504;48.336;14.472;2023-04-15T15:00:42;24.40;43.60
63371;DHT22;49504;48.336;14.472;2023-04-15T15:04:03;24.40;43.60
63371;DHT22;49504;48.336;14.472;2023-04-15T15:07:24;24.50;43.80
63371;DHT22;49504;48.336;14.472;2023-04-15T15:10:47;24.50;43.80
63371;DHT22;49504;48.336;14.472;2023-04-15T15:14:08;24.50;44.00
63371;DHT22;49504;48.336;14.472;2023-04-15T19:43:17;24.50;44.10
63371;DHT22;49504;48.336;14.472;2023-04-15T19:46:38;24.50;43.70
63371;DHT22;49504;48.336;14.472;2023-04-15T19:49:59;24.50;43.70
63371;DHT22;49504;48.336;14.472;2023-04-15T19:54:00;24.50;43.10
63371;DHT22;49504;48.336;14.472;2023-04-15T19:57:22;24.50;43.80
63371;DHT22;49504;48.336;14.472;2023-04-15T20:00:43;24.40;43.80
63371;DHT22;49504;48.336;14.472;2023-04-15T20:07:01;24.50;43.40
63371;DHT22;49504;48.336;14.472;2023-04-15T20:10:22;24.50;44.10
63371;DHT22;49504;48.336;14.472;2023-04-15T20:13:44;24.40;44.00
63371;DHT22;49504;48.336;14.472;2023-04-15T20:17:06;24.40;44.10
63371;DHT22;49504;48.336;14.472;2023-04-15T20:20:27;24.40;44.10
63371;DHT22;49504;48.336;14.472;2023-04-15T20:23:50;24.40;44.20
63371;DHT22;49504;48.336;14.472;2023-04-15T20:27:11;24.40;44.20
63371;DHT22;49504;48.336;14.472;2023-04-15T20:30:32;24.50;44.30
63371;DHT22;49504;48.336;14.472;2023-04-15T20:33:53;24.40;44.30
63371;DHT22;49504;48.336;14.472;2023-04-15T20:37:15;24.40;44.30
63371;DHT22;49504;48.336;14.472;2023-04-15T20:40:37;24.40;44.30
63371;DHT22;49504;48.336;14.472;2023-04-15T20:43:59;24.40;44.40
63371;DHT22;49504;48.336;14.472;2023-04-15T20:47:21;24.40;44.30
63371;DHT22;49504;48.336;14.472;2023-04-15T20:50:42;24.40;44.40
63371;DHT22;49504;48.336;14.472;2023-04-15T20:54:03;24.40;44.40
63371;DHT22;49504;48.336;14.472;2023-04-15T20:57:25;24.40;44.40
63371;DHT22;49504;48.336;14.472;2023-04-15T21:00:47;24.40;44.40
63371;DHT22;49504;48.336;14.472;2023-04-15T21:04:09;24.40;44.40
63371;DHT22;49504;48.336;14.472;2023-04-15T21:07:30;24.40;44.40
63371;DHT22;49504;48.336;14.472;2023-04-15T21:10:51;24.40;44.40
63371;DHT22;49504;48.336;14.472;2023-04-15T21:14:13;24.40;44.40
63371;DHT22;49504;48.336;14.472;2023-04-15T21:17:35;24.40;44.40
63371;DHT22;49504;48.336;14.472;2023-04-15T21:20:56;24.40;44.40
63371;DHT22;49504;48.336;14.472;2023-04-15T21:24:17;24.40;44.40
63371;DHT22;49504;48.336;14.472;2023-04-15T21:27:38;24.40;44.40
63371;DHT22;49504;48.336;14.472;2023-04-15T21:31:00;24.40;45.20
63371;DHT22;49504;48.336;14.472;2023-04-15T21:34:21;24.40;44.30
63371;DHT22;49504;48.336;14.472;2023-04-15T21:39:30;24.40;43.90
63371;DHT22;49504;48.336;14.472;2023-04-15T21:42:52;24.40;44.70
63371;DHT22;49504;48.336;14.472;2023-04-15T21:46:13;24.40;44.80
63371;DHT22;49504;48.336;14.472;2023-04-15T21:49:34;24.40;44.60
63371;DHT22;49504;48.336;14.472;2023-04-15T21:52:55;24.40;44.60
63371;DHT22;49504;48.336;14.472;2023-04-15T21:56:17;24.40;44.60
63371;DHT22;49504;48.336;14.472;2023-04-15T21:59:38;24.40;44.60
63371;DHT22;49504;48.336;14.472;2023-04-15T22:02:59;24.40;44.60
63371;DHT22;49504;48.336;14.472;2023-04-15T22:06:21;24.40;44.50
63371;DHT22;49504;48.336;14.472;2023-04-15T22:09:42;24.40;44.50
63371;DHT22;49504;48.336;14.472;2023-04-15T22:13:04;24.40;44.50
63371;DHT22;49504;48.336;14.472;2023-04-15T22:16:26;24.40;44.50
63371;DHT22;49504;48.336;14.472;2023-04-15T22:19:47;24.40;44.60
63371;DHT22;49504;48.336;14.472;2023-04-15T22:24:38;24.40;43.90
63371;DHT22;49504;48.336;14.472;2023-04-15T22:28:00;24.40;44.50
63371;DHT22;49504;48.336;14.472;2023-04-15T22:31:21;24.40;44.60
63371;DHT22;49504;48.336;14.472;2023-04-15T22:34:42;24.40;44.60
63371;DHT22;49504;48.336;14.472;2023-04-15T22:40:59;24.40;43.90
63371;DHT22;49504;48.336;14.472;2023-04-15T22:44:20;24.30;44.50
63371;DHT22;49504;48.336;14.472;2023-04-15T22:51:10;24.30;43.90
63371;DHT22;49504;48.336;14.472;2023-04-15T22:54:31;24.40;44.60
63371;DHT22;49504;48.336;14.472;2023-04-15T22:57:52;24.40;44.60
63371;DHT22;49504;48.336;14.472;2023-04-15T23:03:03;24.40;44.00
63371;DHT22;49504;48.336;14.472;2023-04-15T23:09:18;24.30;44.00
63371;DHT22;49504;48.336;14.472;2023-04-15T23:12:39;24.50;44.80
63371;DHT22;49504;48.336;14.472;2023-04-15T23:16:00;24.50;44.70
63371;DHT22;49504;48.336;14.472;2023-04-15T23:19:22;24.50;44.70
63371;DHT22;49504;48.336;14.472;2023-04-15T23:22:43;24.50;44.60
63371;DHT22;49504;48.336;14.472;2023-04-15T23:26:06;24.50;44.50
63371;DHT22;49504;48.336;14.472;2023-04-15T23:29:27;24.50;44.40
63371;DHT22;49504;48.336;14.472;2023-04-15T23:32:48;24.50;44.50
63371;DHT22;49504;48.336;14.472;2023-04-15T23:36:09;24.50;44.50
63371;DHT22;49504;48.336;14.472;2023-04-15T23:39:30;24.50;44.50
63371;DHT22;49504;48.336;14.472;2023-04-15T23:42:53;24.50;44.50
63371;DHT22;49504;48.336;14.472;2023-04-15T23:46:14;24.50;44.60
63371;DHT22;49504;48.336;14.472;2023-04-15T23:49:35;24.50;44.60
63371;DHT22;49504;48.336;14.472;2023-04-15T23:52:56;24.40;44.50
63371;DHT22;49504;48.336;14.472;2023-04-15T23:56:17;24.40;44.50
63371;DHT22;49504;48.336;14.472;2023-04-15T23:59:40;24.40;44.60
